Time;durP1;ratioP1;P1;durP2;ratioP2;P2;SDS_P1;SDS_P2;PMS_P1;PMS_P2;Temp;Humidity;BMP_temperature;BMP_pressure;BME280_temperature;BME280_humidity;BME280_pressure;Samples;Min_cycle;Max_cycle;Signal;HPM_P1;HPM_P2
2023/04/13 03:02:16;;;;;;;0.20;0.20;;;18.10;51.40;;;;;;5156243;22;46570;-63
2023/04/13 03:04:42;;;;;;;0.38;0.20;;;18.10;51.40;;;;;;4965182;28;46736;-62
2023/04/13 03:07:09;;;;;;;0.30;0.22;;;18.10;51.40;;;;;;4982500;28;44921;-62
2023/04/13 03:09:40;;;;;;;0.38;0.28;;;18.00;51.40;;;;;;4988840;28;45595;-61
2023/04/13 03:12:09;;;;;;;0.20;0.20;;;18.10;51.40;;;;;;4986878;28;45490;-63
2023/04/13 03:14:35;;;;;;;0.38;0.30;;;18.00;51.40;;;;;;4969437;28;46550;-62
2023/04/13 03:17:01;;;;;;;0.20;0.20;;;18.00;51.40;;;;;;4974466;28;45365;-61
2023/04/13 03:19:27;;;;;;;0.28;0.20;;;18.00;51.40;;;;;;4971746;28;45677;-62
2023/04/13 03:21:53;;;;;;;0.30;0.22;;;18.00;51.40;;;;;;4969108;28;45660;-62
2023/04/13 03:24:19;;;;;;;0.10;0.10;;;18.00;51.40;;;;;;5007217;28;45686;-62
2023/04/13 03:26:44;;;;;;;0.20;0.20;;;18.00;51.40;;;;;;4996891;28;45297;-63
2023/04/13 03:29:10;;;;;;;0.20;0.20;;;18.00;51.50;;;;;;5005846;28;45440;-62
2023/04/13 03:31:35;;;;;;;0.20;0.20;;;18.00;51.50;;;;;;4959255;28;45703;-62
2023/04/13 03:34:01;;;;;;;0.40;0.20;;;18.00;51.50;;;;;;5009653;28;45635;-62
2023/04/13 03:36:26;;;;;;;0.55;0.20;;;18.00;51.50;;;;;;4986049;28;45676;-62
2023/04/13 03:38:53;;;;;;;0.25;0.25;;;18.00;51.40;;;;;;5007756;28;45009;-62
2023/04/13 03:41:18;;;;;;;0.20;0.20;;;18.00;51.40;;;;;;4991779;28;45202;-62
2023/04/13 03:43:44;;;;;;;0.30;0.28;;;18.00;51.50;;;;;;5013194;28;45555;-63
2023/04/13 03:46:09;;;;;;;0.28;0.28;;;18.00;51.50;;;;;;4998320;28;45375;-62
2023/04/13 03:48:35;;;;;;;0.20;0.20;;;18.00;51.50;;;;;;4975345;28;45305;-62
2023/04/13 03:51:01;;;;;;;0.15;0.15;;;17.90;51.40;;;;;;5003170;28;44814;-63
2023/04/13 03:53:26;;;;;;;0.25;0.25;;;18.00;51.50;;;;;;5008371;28;46544;-63
2023/04/13 03:55:52;;;;;;;0.30;0.17;;;17.90;51.40;;;;;;4999762;28;45218;-62
2023/04/13 03:58:18;;;;;;;0.30;0.30;;;18.00;51.50;;;;;;4988110;28;45624;-62
2023/04/13 04:00:44;;;;;;;0.30;0.30;;;17.90;51.50;;;;;;4990710;28;45324;-62
2023/04/13 04:03:09;;;;;;;0.30;0.20;;;17.90;51.40;;;;;;4971551;28;46547;-63
2023/04/13 04:05:36;;;;;;;0.30;0.30;;;17.90;51.40;;;;;;4998773;28;45081;-63
2023/04/13 04:08:02;;;;;;;0.25;0.20;;;17.90;51.40;;;;;;4990119;28;44812;-64
2023/04/13 04:10:28;;;;;;;0.30;0.20;;;17.90;51.40;;;;;;4982340;28;44798;-63
2023/04/13 04:12:53;;;;;;;0.40;0.20;;;17.90;51.50;;;;;;5011651;28;45155;-62
2023/04/13 04:15:19;;;;;;;0.22;0.22;;;17.90;51.50;;;;;;5000790;28;44782;-63
2023/04/13 04:17:44;;;;;;;0.30;0.20;;;17.90;51.50;;;;;;4986806;28;46020;-63
2023/04/13 04:20:10;;;;;;;0.20;0.20;;;17.90;51.50;;;;;;5008557;28;45274;-62
2023/04/13 04:22:36;;;;;;;0.20;0.20;;;17.90;51.60;;;;;;4983383;28;46666;-62
2023/04/13 04:25:01;;;;;;;0.20;0.20;;;17.80;51.50;;;;;;4996094;28;45172;-62
2023/04/13 04:27:27;;;;;;;0.20;0.20;;;17.80;51.50;;;;;;4970154;28;45356;-62
2023/04/13 04:29:58;;;;;;;0.15;0.10;;;17.80;51.50;;;;;;4992803;28;45261;-63
2023/04/13 04:32:23;;;;;;;0.40;0.20;;;17.80;51.50;;;;;;4993493;28;46600;-62
2023/04/13 04:34:51;;;;;;;0.20;0.20;;;17.80;51.50;;;;;;4976885;28;44959;-62
2023/04/13 04:37:20;;;;;;;0.20;0.20;;;17.80;51.50;;;;;;4968940;28;45374;-62
2023/04/13 04:39:46;;;;;;;0.40;0.30;;;17.80;51.50;;;;;;5011581;28;45902;-60
2023/04/13 04:42:13;;;;;;;0.30;0.30;;;17.80;51.50;;;;;;5002662;28;46509;-62
2023/04/13 04:44:39;;;;;;;0.32;0.25;;;17.80;51.60;;;;;;4986141;28;51060;-62
2023/04/13 04:47:04;;;;;;;0.20;0.20;;;17.80;51.60;;;;;;4994569;28;45379;-62
2023/04/13 04:49:30;;;;;;;0.40;0.20;;;17.80;51.60;;;;;;5004564;28;45303;-63
2023/04/13 04:51:56;;;;;;;0.38;0.30;;;17.70;51.50;;;;;;4998677;28;46170;-63
2023/04/13 04:54:22;;;;;;;0.20;0.13;;;17.80;51.60;;;;;;5004256;28;45472;-61
2023/04/13 04:56:52;;;;;;;0.40;0.25;;;17.80;51.60;;;;;;4986214;28;45567;-62
2023/04/13 04:59:18;;;;;;;0.17;0.17;;;17.70;51.50;;;;;;4981415;28;45403;-61
2023/04/13 05:01:44;;;;;;;0.20;0.20;;;17.80;51.60;;;;;;4985975;28;46051;-61
2023/04/13 05:04:10;;;;;;;1.10;0.20;;;17.70;51.50;;;;;;4981154;28;45279;-62
2023/04/13 05:06:35;;;;;;;0.20;0.20;;;17.70;51.50;;;;;;4993663;28;44909;-61
2023/04/13 05:09:02;;;;;;;0.30;0.20;;;17.70;51.50;;;;;;4994162;28;45564;-63
2023/04/13 05:11:28;;;;;;;0.10;0.10;;;17.80;51.60;;;;;;4966634;28;46374;-61
2023/04/13 05:13:54;;;;;;;0.20;0.20;;;17.70;51.50;;;;;;4991851;28;45192;-61
2023/04/13 05:16:20;;;;;;;0.10;0.10;;;17.70;51.50;;;;;;4997576;28;45442;-62
2023/04/13 05:18:46;;;;;;;0.40;0.28;;;17.70;51.50;;;;;;4991215;28;45499;-62
2023/04/13 05:21:12;;;;;;;0.47;0.25;;;17.70;51.50;;;;;;4995788;28;45464;-62
2023/04/13 05:23:38;;;;;;;0.10;0.10;;;17.70;51.50;;;;;;5002890;28;45207;-62
2023/04/13 05:26:04;;;;;;;0.20;0.20;;;17.70;51.50;;;;;;5001561;28;45343;-62
2023/04/13 05:28:30;;;;;;;0.10;0.10;;;17.70;51.50;;;;;;5009803;28;45523;-62
2023/04/13 05:31:02;;;;;;;0.20;0.20;;;17.70;51.50;;;;;;4995793;28;45724;-61
2023/04/13 05:33:28;;;;;;;0.20;0.10;;;17.70;51.50;;;;;;4990848;28;45350;-62
2023/04/13 05:35:54;;;;;;;0.20;0.20;;;17.70;51.50;;;;;;4983249;28;45282;-62
2023/04/13 05:38:20;;;;;;;0.15;0.10;;;17.70;51.60;;;;;;4963394;28;45545;-61
2023/04/13 05:40:45;;;;;;;0.70;0.25;;;17.70;51.60;;;;;;4964634;28;46851;-63
2023/04/13 05:43:12;;;;;;;0.30;0.28;;;17.70;51.60;;;;;;4986379;28;45751;-62
2023/04/13 05:45:37;;;;;;;0.20;0.20;;;17.70;51.60;;;;;;4999290;28;45425;-62
2023/04/13 05:48:03;;;;;;;0.38;0.28;;;17.60;51.60;;;;;;5003929;28;44949;-62
2023/04/13 05:50:29;;;;;;;0.20;0.20;;;17.70;51.60;;;;;;4997704;28;45470;-62
2023/04/13 05:52:56;;;;;;;0.20;0.10;;;17.70;51.60;;;;;;4985562;28;45316;-62
2023/04/13 05:55:22;;;;;;;0.32;0.32;;;17.70;51.90;;;;;;4986519;28;45362;-61
2023/04/13 05:57:48;;;;;;;1.05;0.40;;;17.70;50.60;;;;;;5009160;28;45181;-61
2023/04/13 06:00:17;;;;;;;2.15;0.40;;;17.60;49.90;;;;;;4995843;28;47162;-63
2023/04/13 06:02:42;;;;;;;1.25;0.40;;;17.50;48.60;;;;;;4978696;28;45193;-62
2023/04/13 06:05:08;;;;;;;3.95;0.45;;;17.40;48.40;;;;;;4988915;28;44635;-61
2023/04/13 06:07:34;;;;;;;0.70;0.50;;;17.30;48.30;;;;;;4971714;28;45510;-60
2023/04/13 06:10:00;;;;;;;0.93;0.50;;;17.30;48.40;;;;;;5003389;28;46733;-58
2023/04/13 06:12:26;;;;;;;0.88;0.32;;;17.40;49.00;;;;;;4952113;28;45543;-59
2023/04/13 06:14:52;;;;;;;0.45;0.30;;;17.50;48.90;;;;;;5005693;28;45288;-59
2023/04/13 06:17:17;;;;;;;0.77;0.32;;;17.80;48.70;;;;;;4997470;28;45370;-60
2023/04/13 06:19:43;;;;;;;1.05;0.40;;;17.90;48.40;;;;;;5006599;28;46206;-61
2023/04/13 06:22:09;;;;;;;0.22;0.22;;;18.20;48.20;;;;;;5002094;28;45564;-59
2023/04/13 06:24:34;;;;;;;0.60;0.35;;;18.30;47.90;;;;;;4992369;28;44997;-62
2023/04/13 06:27:00;;;;;;;0.85;0.40;;;18.50;47.70;;;;;;5001796;28;45494;-60
2023/04/13 06:29:26;;;;;;;1.08;0.30;;;18.70;47.60;;;;;;5004771;28;45485;-59
2023/04/13 06:31:51;;;;;;;1.63;0.30;;;18.90;47.50;;;;;;4995486;28;44641;-59
2023/04/13 06:34:17;;;;;;;1.35;0.30;;;19.00;47.40;;;;;;4988352;28;45442;-60
2023/04/13 06:36:43;;;;;;;1.20;0.50;;;19.10;47.30;;;;;;4983953;28;45378;-57
2023/04/13 06:39:09;;;;;;;2.40;0.47;;;19.30;47.30;;;;;;5006966;28;45038;-59
2023/04/13 06:41:35;;;;;;;0.90;0.38;;;19.40;47.20;;;;;;4983640;28;45308;-59
2023/04/13 06:44:00;;;;;;;2.10;0.77;;;19.50;47.20;;;;;;5001877;28;45183;-58
2023/04/13 06:46:26;;;;;;;0.75;0.43;;;19.60;47.00;;;;;;4999548;28;45238;-59
2023/04/13 06:48:52;;;;;;;0.55;0.40;;;19.70;47.10;;;;;;5005162;28;45927;-60
2023/04/13 06:51:17;;;;;;;0.47;0.22;;;19.80;47.10;;;;;;4996308;28;45040;-61
2023/04/13 06:53:43;;;;;;;0.35;0.30;;;19.90;47.00;;;;;;5009374;28;45544;-59
2023/04/13 06:56:08;;;;;;;1.02;0.25;;;20.00;46.90;;;;;;4984660;28;45387;-59
2023/04/13 06:58:35;;;;;;;0.50;0.30;;;20.10;46.90;;;;;;4990850;28;45790;-61
2023/04/13 07:01:01;;;;;;;0.60;0.40;;;20.20;46.90;;;;;;4992647;28;44960;-60
2023/04/13 07:03:26;;;;;;;0.40;0.25;;;20.30;46.80;;;;;;4996001;28;46029;-59
2023/04/13 07:05:53;;;;;;;1.92;0.40;;;20.40;46.80;;;;;;4965502;28;45406;-60
2023/04/13 07:08:19;;;;;;;2.03;0.45;;;20.50;46.80;;;;;;4992627;28;47109;-62
2023/04/13 07:10:45;;;;;;;0.65;0.30;;;20.50;46.70;;;;;;5004244;28;45270;-59
2023/04/13 07:13:11;;;;;;;0.80;0.47;;;20.60;46.70;;;;;;5009435;28;45204;-60
2023/04/13 07:15:36;;;;;;;0.28;0.28;;;20.70;46.70;;;;;;4983639;28;45197;-60
2023/04/13 07:18:02;;;;;;;0.63;0.30;;;20.80;46.70;;;;;;5008629;28;46850;-60
2023/04/13 07:20:28;;;;;;;0.45;0.20;;;20.80;46.60;;;;;;4988338;28;44939;-60
2023/04/13 07:22:53;;;;;;;0.32;0.30;;;20.90;46.60;;;;;;5017678;28;45162;-59
2023/04/13 07:25:20;;;;;;;3.20;0.30;;;21.00;46.60;;;;;;4984316;28;45631;-61
2023/04/13 07:27:47;;;;;;;0.73;0.32;;;21.10;46.60;;;;;;4985123;28;45374;-59
2023/04/13 07:30:13;;;;;;;0.30;0.20;;;21.20;46.50;;;;;;4984049;28;45455;-61
2023/04/13 07:32:39;;;;;;;0.75;0.22;;;21.20;46.40;;;;;;4969877;28;46212;-61
2023/04/13 07:35:05;;;;;;;3.13;0.30;;;21.30;46.40;;;;;;4987512;28;45497;-61
2023/04/13 07:37:30;;;;;;;2.90;0.40;;;21.40;46.40;;;;;;4975144;28;46043;-59
2023/04/13 07:39:56;;;;;;;1.63;0.30;;;21.50;46.30;;;;;;5010849;28;44915;-60
2023/04/13 07:42:21;;;;;;;0.28;0.28;;;21.50;46.40;;;;;;4988437;28;45265;-60
2023/04/13 07:44:47;;;;;;;1.02;0.30;;;21.60;46.20;;;;;;4990092;28;45296;-60
2023/04/13 07:47:13;;;;;;;0.73;0.30;;;21.70;46.20;;;;;;4999987;28;45613;-61
2023/04/13 07:49:38;;;;;;;1.30;0.32;;;21.70;46.20;;;;;;4976615;28;45111;-60
2023/04/13 07:52:04;;;;;;;1.20;0.22;;;21.80;46.10;;;;;;4987470;28;45587;-59
2023/04/13 07:54:29;;;;;;;0.35;0.30;;;21.80;46.00;;;;;;4993387;28;45512;-61
2023/04/13 07:56:55;;;;;;;0.32;0.20;;;21.90;46.00;;;;;;4987891;28;45839;-61
2023/04/13 07:59:21;;;;;;;0.30;0.20;;;22.00;46.00;;;;;;4989750;28;46298;-60
2023/04/13 08:01:46;;;;;;;0.65;0.30;;;22.10;45.90;;;;;;4994382;28;45625;-60
2023/04/13 08:04:12;;;;;;;0.65;0.20;;;22.10;45.90;;;;;;4978795;28;45591;-58
2023/04/13 08:06:37;;;;;;;2.38;0.28;;;22.20;45.90;;;;;;4984955;28;47014;-60
2023/04/13 08:09:03;;;;;;;0.40;0.30;;;22.20;45.80;;;;;;4973402;28;45743;-61
2023/04/13 08:11:28;;;;;;;2.38;0.40;;;22.30;45.80;;;;;;4986291;28;44972;-61
2023/04/13 08:13:55;;;;;;;3.88;0.25;;;22.40;45.80;;;;;;5008734;28;45491;-62
2023/04/13 08:16:20;;;;;;;0.32;0.30;;;22.40;45.70;;;;;;4995317;28;46917;-61
2023/04/13 08:18:46;;;;;;;0.22;0.20;;;22.50;45.70;;;;;;4991676;28;45575;-61
2023/04/13 08:21:11;;;;;;;0.35;0.20;;;22.50;45.70;;;;;;4988975;28;45434;-60
2023/04/13 08:23:41;;;;;;;0.60;0.25;;;22.60;45.70;;;;;;5006065;28;44973;-61
2023/04/13 08:26:06;;;;;;;0.70;0.40;;;22.60;45.60;;;;;;4983698;28;45443;-61
2023/04/13 08:28:32;;;;;;;0.68;0.28;;;22.70;45.70;;;;;;4975678;28;45038;-58
2023/04/13 08:30:58;;;;;;;1.42;0.28;;;22.70;45.60;;;;;;4951391;28;45344;-60
2023/04/13 08:33:23;;;;;;;1.92;0.30;;;22.80;45.60;;;;;;5009972;28;45276;-61
2023/04/13 08:35:50;;;;;;;0.43;0.15;;;22.80;45.70;;;;;;4959686;28;46529;-61
2023/04/13 08:38:16;;;;;;;0.93;0.20;;;22.70;45.70;;;;;;5007883;28;45155;-59
2023/04/13 08:40:41;;;;;;;1.05;0.20;;;22.80;45.80;;;;;;5004134;28;45498;-61
2023/04/13 08:43:07;;;;;;;2.50;0.30;;;22.80;45.70;;;;;;4992836;28;45340;-58
2023/04/13 08:45:33;;;;;;;0.10;0.10;;;22.80;45.80;;;;;;5001939;28;45586;-59
2023/04/13 08:48:02;;;;;;;0.40;0.20;;;22.80;45.70;;;;;;4988498;28;45789;-57
2023/04/13 08:50:28;;;;;;;0.68;0.25;;;22.90;45.80;;;;;;4991241;28;45033;-59
2023/04/13 08:52:54;;;;;;;0.57;0.28;;;22.90;45.70;;;;;;4995466;28;45470;-59
2023/04/13 08:55:20;;;;;;;0.98;0.30;;;23.00;45.70;;;;;;5004436;28;45403;-60
2023/04/13 08:57:47;;;;;;;1.42;0.30;;;23.00;45.60;;;;;;4987326;28;44997;-57
2023/04/13 09:00:16;;;;;;;0.55;0.38;;;23.10;45.60;;;;;;4981295;28;45101;-60
2023/04/13 09:02:47;;;;;;;0.52;0.20;;;23.20;45.50;;;;;;4961868;28;44941;-59
2023/04/13 09:05:14;;;;;;;0.20;0.20;;;23.20;45.50;;;;;;5006431;28;46178;-60
2023/04/13 09:07:40;;;;;;;0.60;0.40;;;23.20;45.50;;;;;;4985886;28;45213;-58
2023/04/13 09:10:08;;;;;;;0.38;0.17;;;23.10;45.60;;;;;;4973961;28;44847;-57
2023/04/13 09:12:33;;;;;;;0.50;0.10;;;23.20;45.60;;;;;;5004156;28;45538;-59
2023/04/13 09:15:00;;;;;;;0.52;0.25;;;23.20;45.60;;;;;;5012944;28;45510;-57
2023/04/13 09:17:27;;;;;;;0.22;0.20;;;23.30;45.60;;;;;;4959467;28;45402;-57
2023/04/13 09:19:54;;;;;;;0.40;0.25;;;23.30;46.10;;;;;;4987970;28;45221;-59
2023/04/13 09:22:20;;;;;;;0.40;0.10;;;23.30;45.40;;;;;;4984244;28;44907;-63
2023/04/13 09:24:46;;;;;;;0.55;0.20;;;23.40;45.50;;;;;;5005719;28;45590;-59
2023/04/13 09:27:22;;;;;;;1.05;0.40;;;23.50;45.50;;;;;;5002864;28;45264;-59
2023/04/13 09:29:51;;;;;;;0.75;0.20;;;23.50;45.30;;;;;;4969726;28;45461;-59
2023/04/13 09:32:25;;;;;;;0.20;0.20;;;23.50;45.40;;;;;;4981408;28;45772;-61
2023/04/13 09:35:04;;;;;;;0.20;0.20;;;23.50;45.30;;;;;;5003277;28;45446;-60
2023/04/13 09:37:31;;;;;;;0.40;0.30;;;23.60;45.30;;;;;;4970385;28;45404;-60
2023/04/13 09:40:14;;;;;;;0.88;0.38;;;23.50;45.40;;;;;;5005284;28;45609;-59
2023/04/13 09:42:40;;;;;;;0.40;0.10;;;23.60;45.30;;;;;;4988443;28;45287;-61
2023/04/13 09:45:07;;;;;;;0.50;0.20;;;23.60;45.40;;;;;;5003519;28;46258;-65
2023/04/13 09:47:39;;;;;;;0.32;0.25;;;23.60;45.40;;;;;;4964427;28;45172;-62
2023/04/13 09:50:22;;;;;;;0.40;0.30;;;23.60;45.30;;;;;;4982892;28;45506;-59
2023/04/13 09:53:09;;;;;;;0.50;0.30;;;23.70;45.20;;;;;;5007588;28;45534;-60
2023/04/13 09:55:36;;;;;;;2.03;0.43;;;23.70;45.10;;;;;;5003485;28;46415;-60
2023/04/13 09:58:07;;;;;;;0.50;0.30;;;23.70;45.40;;;;;;5005186;28;45221;-59
2023/04/13 10:00:33;;;;;;;0.22;0.20;;;23.80;45.30;;;;;;4977344;28;45447;-62
2023/04/13 10:03:00;;;;;;;0.63;0.30;;;23.80;45.30;;;;;;5008779;28;45066;-60
2023/04/13 10:05:26;;;;;;;0.63;0.25;;;23.80;45.30;;;;;;4982572;28;45159;-60
2023/04/13 10:07:53;;;;;;;0.40;0.10;;;23.80;45.90;;;;;;4974924;28;46162;-60
2023/04/13 10:10:21;;;;;;;0.40;0.20;;;23.70;45.30;;;;;;4989699;28;46459;-62
2023/04/13 10:12:48;;;;;;;0.38;0.28;;;23.70;45.40;;;;;;4980480;28;44926;-59
2023/04/13 10:15:36;;;;;;;0.77;0.30;;;23.60;45.50;;;;;;4975784;28;46645;-61
2023/04/13 10:18:39;;;;;;;1.55;0.20;;;23.50;45.60;;;;;;4993403;28;44759;-60
2023/04/13 10:21:05;;;;;;;0.47;0.20;;;23.40;45.70;;;;;;4990171;28;46667;-60
2023/04/13 10:23:32;;;;;;;0.50;0.30;;;23.30;46.00;;;;;;4980631;28;46252;-62
2023/04/13 10:25:59;;;;;;;1.23;0.40;;;23.30;46.10;;;;;;4990503;28;45670;-58
2023/04/13 10:28:26;;;;;;;1.55;0.32;;;23.20;46.20;;;;;;4981031;28;44729;-58
2023/04/13 10:30:52;;;;;;;0.32;0.30;;;23.10;46.30;;;;;;4975184;28;45701;-59
2023/04/13 10:33:17;;;;;;;0.40;0.20;;;23.10;46.40;;;;;;4981003;28;45257;-61
2023/04/13 10:36:01;;;;;;;1.65;0.30;;;23.10;46.50;;;;;;4939161;28;46259;-60
2023/04/13 10:38:26;;;;;;;0.30;0.30;;;23.00;46.40;;;;;;4966733;28;46289;-60
2023/04/13 10:40:52;;;;;;;1.25;0.28;;;22.90;46.60;;;;;;4959252;28;45815;-57
2023/04/13 10:43:44;;;;;;;0.40;0.22;;;22.90;46.70;;;;;;4993432;28;46328;-57
2023/04/13 10:46:12;;;;;;;0.40;0.30;;;22.80;46.50;;;;;;4984728;28;45981;-58
2023/04/13 10:48:41;;;;;;;0.55;0.30;;;22.80;46.70;;;;;;4983469;28;45190;-60
2023/04/13 10:51:06;;;;;;;1.33;0.30;;;22.80;46.80;;;;;;4992942;28;45415;-56
2023/04/13 10:53:33;;;;;;;0.30;0.20;;;22.80;46.80;;;;;;4996197;28;45240;-57
2023/04/13 10:56:00;;;;;;;1.88;0.60;;;22.70;46.80;;;;;;4977997;28;45452;-60
2023/04/13 10:58:31;;;;;;;0.88;0.25;;;22.70;46.90;;;;;;4964569;28;45354;-60
2023/04/13 11:00:57;;;;;;;1.17;0.40;;;22.60;46.90;;;;;;4982313;28;45241;-60
2023/04/13 11:03:25;;;;;;;0.57;0.30;;;22.60;47.00;;;;;;4969003;28;45652;-57
2023/04/13 11:05:56;;;;;;;0.47;0.40;;;22.60;46.90;;;;;;4975739;28;46000;-58
2023/04/13 11:08:23;;;;;;;1.52;0.30;;;22.60;47.00;;;;;;4968626;28;45649;-59
2023/04/13 11:10:57;;;;;;;0.55;0.35;;;22.50;47.00;;;;;;4990499;28;45098;-60
2023/04/13 11:13:27;;;;;;;0.88;0.30;;;22.50;47.00;;;;;;4978422;28;45887;-59
2023/04/13 11:16:06;;;;;;;0.70;0.32;;;22.50;47.10;;;;;;4972216;28;46292;-59
2023/04/13 11:18:32;;;;;;;0.35;0.20;;;22.50;47.10;;;;;;4995239;28;45246;-59
2023/04/13 11:20:57;;;;;;;0.47;0.30;;;22.40;47.20;;;;;;4989857;28;45159;-58
2023/04/13 11:23:23;;;;;;;0.30;0.20;;;22.40;47.20;;;;;;4997879;28;45615;-59
2023/04/13 11:25:56;;;;;;;0.82;0.22;;;22.40;47.30;;;;;;4979555;28;46142;-59
2023/04/13 11:28:22;;;;;;;0.73;0.20;;;22.40;47.30;;;;;;4970258;28;45477;-58
2023/04/13 11:30:57;;;;;;;0.20;0.20;;;22.30;47.40;;;;;;4982661;28;44705;-57
2023/04/13 11:33:26;;;;;;;0.52;0.40;;;22.30;47.40;;;;;;4993717;28;45427;-59
2023/04/13 11:35:56;;;;;;;2.28;0.30;;;22.30;47.50;;;;;;4974476;28;47309;-58
2023/04/13 11:38:21;;;;;;;0.40;0.25;;;22.20;47.50;;;;;;4995090;28;44630;-58
2023/04/13 11:40:47;;;;;;;0.20;0.17;;;22.20;47.60;;;;;;4989444;28;45257;-58
2023/04/13 11:43:16;;;;;;;1.17;0.40;;;22.20;47.60;;;;;;4968979;28;45172;-60
2023/04/13 11:45:42;;;;;;;0.40;0.10;;;22.20;47.70;;;;;;4972479;28;45400;-58
2023/04/13 11:48:08;;;;;;;1.48;0.40;;;22.10;47.60;;;;;;4979656;28;45303;-59
2023/04/13 11:50:37;;;;;;;1.30;0.35;;;22.10;47.70;;;;;;4957173;28;45675;-59
2023/04/13 11:53:02;;;;;;;0.40;0.30;;;22.10;47.70;;;;;;4997518;28;44786;-60
2023/04/13 11:55:28;;;;;;;0.28;0.22;;;22.10;47.80;;;;;;4980816;28;45512;-59
2023/04/13 11:57:53;;;;;;;0.75;0.40;;;22.10;47.80;;;;;;4987271;28;44716;-58
2023/04/13 12:00:24;;;;;;;1.27;0.30;;;22.00;47.80;;;;;;4960957;28;44804;-62
2023/04/13 12:02:51;;;;;;;1.33;0.50;;;22.00;47.90;;;;;;4981219;28;45663;-60
2023/04/13 12:05:24;;;;;;;1.17;0.40;;;22.00;47.90;;;;;;4994970;28;46399;-60
2023/04/13 12:07:52;;;;;;;1.25;0.35;;;22.00;48.00;;;;;;4950555;28;45980;-59
2023/04/13 12:10:20;;;;;;;0.80;0.45;;;21.90;47.90;;;;;;4981713;28;45452;-56
2023/04/13 12:12:46;;;;;;;1.35;0.43;;;21.90;48.00;;;;;;4997214;28;46233;-58
2023/04/13 12:15:12;;;;;;;0.60;0.20;;;21.90;48.00;;;;;;4975057;28;46856;-58
2023/04/13 12:17:38;;;;;;;1.40;0.50;;;21.90;48.10;;;;;;4988680;28;45347;-58
2023/04/13 12:20:06;;;;;;;1.60;0.32;;;21.90;48.10;;;;;;4981390;28;44830;-62
2023/04/13 12:22:38;;;;;;;1.30;0.32;;;21.90;48.10;;;;;;4968281;28;45250;-61
2023/04/13 12:25:22;;;;;;;0.50;0.47;;;21.80;48.20;;;;;;4969641;28;45945;-63
2023/04/13 12:27:51;;;;;;;0.75;0.40;;;21.90;48.20;;;;;;4982595;28;45297;-61
2023/04/13 12:30:18;;;;;;;1.02;0.40;;;21.80;48.10;;;;;;4992300;28;45299;-60
2023/04/13 12:32:51;;;;;;;1.55;0.47;;;21.80;48.20;;;;;;4984349;28;45708;-62
2023/04/13 12:35:18;;;;;;;0.70;0.30;;;21.80;48.20;;;;;;4990499;28;46711;-59
2023/04/13 12:37:44;;;;;;;0.98;0.50;;;21.80;48.20;;;;;;4967467;28;45590;-60
2023/04/13 12:40:12;;;;;;;0.63;0.30;;;21.70;48.20;;;;;;4963929;28;45680;-60
2023/04/13 12:42:47;;;;;;;1.35;0.50;;;21.70;48.20;;;;;;4965122;28;46204;-58
2023/04/13 12:45:13;;;;;;;1.13;0.50;;;21.70;48.30;;;;;;4946941;28;47124;-63
2023/04/13 12:47:39;;;;;;;2.42;0.40;;;21.80;48.40;;;;;;4993889;28;45268;-60
2023/04/13 12:50:06;;;;;;;0.63;0.40;;;21.70;48.40;;;;;;4967150;28;46472;-60
2023/04/13 12:52:32;;;;;;;0.80;0.30;;;21.70;48.40;;;;;;4995228;28;45606;-59
2023/04/13 12:54:58;;;;;;;0.80;0.30;;;21.70;48.50;;;;;;4968963;28;47514;-58
2023/04/13 12:57:25;;;;;;;0.47;0.28;;;21.70;48.50;;;;;;4982670;28;45940;-58
2023/04/13 12:59:51;;;;;;;1.00;0.40;;;21.60;48.50;;;;;;4993817;28;44692;-60
2023/04/13 13:02:16;;;;;;;0.75;0.40;;;21.70;48.60;;;;;;4977567;28;46156;-59
2023/04/13 13:04:42;;;;;;;0.55;0.43;;;21.60;48.50;;;;;;4997850;28;46003;-60
2023/04/13 13:07:07;;;;;;;0.90;0.50;;;21.60;48.60;;;;;;4993081;28;45369;-58
2023/04/13 13:09:33;;;;;;;1.08;0.45;;;21.60;48.60;;;;;;4995288;28;44724;-60
2023/04/13 13:11:59;;;;;;;0.65;0.45;;;21.60;48.70;;;;;;4993570;28;45492;-60
2023/04/13 13:14:24;;;;;;;1.58;0.47;;;21.60;48.70;;;;;;4966048;28;46152;-60
2023/04/13 13:16:50;;;;;;;0.32;0.20;;;21.60;48.70;;;;;;4977288;28;45811;-61
2023/04/13 13:19:15;;;;;;;0.88;0.40;;;21.60;48.80;;;;;;4970490;28;45359;-66
2023/04/13 13:21:42;;;;;;;1.77;0.52;;;21.60;48.80;;;;;;4977040;28;45982;-63
2023/04/13 13:24:07;;;;;;;0.73;0.30;;;21.50;48.80;;;;;;4977145;28;45581;-58
2023/04/13 13:26:33;;;;;;;0.63;0.50;;;21.60;48.80;;;;;;4994837;28;44705;-58
2023/04/13 13:28:58;;;;;;;1.67;0.40;;;21.50;48.80;;;;;;4996954;28;45515;-60
2023/04/13 13:31:26;;;;;;;0.52;0.40;;;21.50;48.80;;;;;;4980029;28;44707;-60
2023/04/13 13:33:53;;;;;;;0.45;0.40;;;21.50;48.90;;;;;;4967408;28;45592;-58
2023/04/13 13:36:18;;;;;;;0.73;0.40;;;21.50;48.80;;;;;;4992701;28;45346;-57
2023/04/13 13:38:45;;;;;;;0.40;0.40;;;21.50;48.90;;;;;;4986236;28;45945;-61
2023/04/13 13:41:10;;;;;;;2.95;0.70;;;21.50;49.00;;;;;;4979080;28;45758;-57
2023/04/13 13:43:36;;;;;;;1.75;0.40;;;21.50;49.00;;;;;;4997095;28;45780;-58
2023/04/13 13:46:04;;;;;;;1.00;0.40;;;21.50;49.00;;;;;;4975080;28;45714;-58
2023/04/13 13:48:29;;;;;;;1.05;0.40;;;21.40;49.00;;;;;;4997384;28;44831;-59
2023/04/13 13:50:55;;;;;;;2.88;0.40;;;21.50;49.10;;;;;;4989930;28;45530;-59
2023/04/13 13:53:20;;;;;;;1.23;0.30;;;21.40;49.10;;;;;;4980769;28;45377;-58
2023/04/13 13:55:48;;;;;;;1.20;0.52;;;21.40;49.10;;;;;;4974500;28;45329;-60
2023/04/13 13:58:14;;;;;;;0.85;0.40;;;21.40;49.10;;;;;;4996485;28;45546;-58
2023/04/13 14:00:40;;;;;;;0.32;0.32;;;21.40;49.10;;;;;;4986721;28;45364;-61
2023/04/13 14:03:06;;;;;;;1.38;0.40;;;21.40;49.10;;;;;;4992968;28;45547;-59
2023/04/13 14:05:31;;;;;;;1.38;0.40;;;21.40;49.10;;;;;;4979127;28;45341;-59
2023/04/13 14:07:57;;;;;;;0.40;0.40;;;21.40;49.20;;;;;;4981016;28;45120;-59
2023/04/13 14:10:22;;;;;;;1.25;0.63;;;21.30;49.20;;;;;;4991272;28;45714;-56
2023/04/13 14:12:48;;;;;;;1.85;0.50;;;21.30;49.20;;;;;;4994706;28;46090;-59
2023/04/13 14:15:13;;;;;;;1.42;0.70;;;21.30;49.20;;;;;;4973137;28;45811;-62
2023/04/13 14:17:39;;;;;;;1.15;0.50;;;21.30;49.30;;;;;;4981673;28;45784;-61
2023/04/13 14:20:07;;;;;;;1.10;0.63;;;21.30;49.30;;;;;;4977209;28;45511;-61
2023/04/13 14:22:33;;;;;;;1.17;0.60;;;21.30;49.40;;;;;;4993602;28;46173;-60
2023/04/13 14:24:59;;;;;;;0.90;0.50;;;21.20;49.30;;;;;;4982441;28;45313;-58
2023/04/13 14:27:25;;;;;;;3.70;0.73;;;21.30;49.40;;;;;;4992769;28;45625;-58
2023/04/13 14:29:51;;;;;;;1.10;0.60;;;21.20;49.40;;;;;;4995246;28;45689;-58
2023/04/13 14:32:16;;;;;;;1.05;0.60;;;21.20;49.40;;;;;;4983540;28;46924;-61
2023/04/13 14:34:44;;;;;;;0.70;0.43;;;21.20;49.40;;;;;;4980413;28;45870;-59
2023/04/13 14:37:11;;;;;;;1.25;0.50;;;21.20;49.40;;;;;;4978751;28;45295;-59
2023/04/13 14:39:38;;;;;;;2.30;0.50;;;21.20;49.50;;;;;;4976004;28;45271;-60
2023/04/13 14:42:03;;;;;;;1.58;0.90;;;21.20;49.50;;;;;;4989303;28;46553;-60
2023/04/13 14:44:29;;;;;;;2.58;0.40;;;21.10;49.40;;;;;;4983461;28;45652;-59
2023/04/13 14:46:55;;;;;;;1.23;0.60;;;21.20;49.50;;;;;;4988278;28;45164;-56
2023/04/13 14:49:20;;;;;;;1.02;0.40;;;21.20;49.50;;;;;;4995118;28;46107;-59
2023/04/13 14:51:46;;;;;;;1.58;0.70;;;21.10;49.50;;;;;;4975296;28;45876;-58
2023/04/13 14:54:11;;;;;;;2.78;0.47;;;21.10;49.60;;;;;;4992042;28;45466;-59
2023/04/13 14:56:37;;;;;;;1.75;0.40;;;21.10;49.60;;;;;;4992291;28;45384;-58
2023/04/13 14:59:03;;;;;;;3.05;0.60;;;21.10;49.70;;;;;;4994023;28;45520;-57
2023/04/13 15:01:28;;;;;;;0.57;0.47;;;21.00;49.60;;;;;;4971169;28;48066;-59
2023/04/13 15:03:54;;;;;;;0.90;0.40;;;21.00;49.70;;;;;;4994365;28;45873;-59
2023/04/13 15:06:19;;;;;;;0.95;0.50;;;21.00;49.70;;;;;;4991424;28;45886;-58
2023/04/13 15:08:45;;;;;;;1.00;0.52;;;21.00;49.70;;;;;;4968164;28;45279;-59
2023/04/13 15:11:11;;;;;;;0.90;0.50;;;21.00;49.70;;;;;;4990488;28;45586;-58
2023/04/13 15:13:37;;;;;;;1.45;0.60;;;21.00;49.80;;;;;;4995230;28;45688;-59
2023/04/13 15:16:03;;;;;;;0.30;0.30;;;21.00;49.80;;;;;;4977965;28;45471;-59
2023/04/13 15:18:28;;;;;;;1.15;0.50;;;20.90;49.80;;;;;;4995552;28;45317;-58
2023/04/13 15:20:54;;;;;;;1.23;0.60;;;20.90;49.80;;;;;;4989315;28;45654;-59
2023/04/13 15:23:20;;;;;;;1.55;0.80;;;20.90;49.80;;;;;;4994613;28;45735;-59
2023/04/13 15:25:46;;;;;;;0.90;0.57;;;20.80;49.80;;;;;;4976032;28;45406;-58
2023/04/13 15:28:11;;;;;;;0.77;0.50;;;20.80;49.80;;;;;;4994293;28;46021;-57
2023/04/13 15:30:39;;;;;;;2.25;0.82;;;20.80;49.80;;;;;;4963418;28;46890;-59
2023/04/13 15:33:04;;;;;;;0.63;0.50;;;20.80;49.80;;;;;;4983920;28;46300;-59
2023/04/13 15:35:30;;;;;;;1.30;0.60;;;20.80;49.80;;;;;;4978516;28;45528;-59
2023/04/13 15:37:56;;;;;;;0.57;0.55;;;20.80;49.80;;;;;;4970331;28;45314;-57
2023/04/13 15:40:24;;;;;;;3.30;0.82;;;20.80;49.80;;;;;;4987959;28;47228;-58
2023/04/13 15:42:50;;;;;;;0.75;0.55;;;20.80;49.90;;;;;;4973233;28;45259;-59
2023/04/13 15:45:15;;;;;;;0.52;0.45;;;20.70;49.90;;;;;;4988652;28;46395;-58
2023/04/13 15:47:41;;;;;;;1.50;0.63;;;20.70;49.90;;;;;;4961625;28;45500;-60